Time;durP1;ratioP1;P1;durP2;ratioP2;P2;SDS_P1;SDS_P2;PMS_P1;PMS_P2;Temp;Humidity;BMP_temperature;BMP_pressure;BME280_temperature;BME280_humidity;BME280_pressure;Samples;Min_cycle;Max_cycle;Signal;HPM_P1;HPM_P2
2023/12/31 00:00:08;;;;;;;;;7.50;7.50;;;;;10.35;76.69;99908.84;5051453;28;45586;-60
2023/12/31 00:02:33;;;;;;;;;8.25;7.50;;;;;10.37;77.05;99887.91;5051973;28;46054;-61
2023/12/31 00:04:59;;;;;;;;;5.25;3.50;;;;;10.31;77.04;99857.41;5040467;28;45484;-60
2023/12/31 00:07:26;;;;;;;;;8.25;5.75;;;;;10.38;77.15;99852.97;5052820;28;45470;-62
2023/12/31 00:09:52;;;;;;;;;7.25;7.25;;;;;10.38;77.08;99852.97;5058582;28;45643;-61
2023/12/31 00:12:18;;;;;;;;;6.00;6.00;;;;;10.39;76.93;99833.75;5048870;28;45451;-61
2023/12/31 00:14:44;;;;;;;;;8.75;7.25;;;;;10.24;76.88;99816.44;5055047;28;45509;-59
2023/12/31 00:17:10;;;;;;;;;13.25;5.25;;;;;10.13;77.39;99786.91;5035852;28;45741;-60
2023/12/31 00:19:36;;;;;;;;;9.75;6.50;;;;;10.40;77.18;99825.03;5046762;28;45430;-61
2023/12/31 00:22:01;;;;;;;;;6.75;6.50;;;;;10.42;76.87;99818.03;5047973;28;45533;-61
2023/12/31 00:24:27;;;;;;;;;9.00;8.00;;;;;10.43;76.71;99818.88;5053615;28;45364;-60
2023/12/31 00:26:52;;;;;;;;;8.25;7.75;;;;;10.38;76.83;99801.47;5049423;28;45345;-62
2023/12/31 00:29:18;;;;;;;;;6.00;6.00;;;;;10.40;76.98;99804.09;5039484;28;45600;-63
2023/12/31 00:31:43;;;;;;;;;8.75;6.75;;;;;10.37;77.19;99805.00;5051577;28;45825;-60
2023/12/31 00:34:11;;;;;;;;;13.00;9.00;;;;;10.21;77.73;99769.38;5056126;28;45448;-60
2023/12/31 00:36:37;;;;;;;;;9.00;6.25;;;;;10.26;77.34;99759.72;5055597;28;45525;-61
2023/12/31 00:39:03;;;;;;;;;10.25;8.25;;;;;10.34;77.70;99784.06;5057045;28;45614;-61
2023/12/31 00:41:28;;;;;;;;;9.00;7.00;;;;;10.19;77.76;99769.38;5038914;28;47018;-61
2023/12/31 00:43:55;;;;;;;;;1.75;1.00;;;;;10.17;78.11;99760.69;5057308;28;45383;-59
2023/12/31 00:46:20;;;;;;;;;7.25;6.00;;;;;10.26;77.96;99756.25;5057003;28;45383;-65
2023/12/31 00:48:46;;;;;;;;;8.25;8.00;;;;;10.38;78.13;99759.59;5057702;28;45370;-62
2023/12/31 00:51:11;;;;;;;;;7.50;7.50;;;;;10.40;77.97;99749.13;5049935;28;45506;-62
2023/12/31 00:53:37;;;;;;;;;13.25;10.25;;;;;10.43;77.74;99737.72;5058078;28;45462;-64
2023/12/31 00:56:03;;;;;;;;;14.50;8.00;;;;;10.38;77.56;99733.41;5058170;28;45601;-59
2023/12/31 00:58:29;;;;;;;;;9.50;8.00;;;;;10.23;77.50;99703.91;5057134;28;45387;-63
2023/12/31 01:00:54;;;;;;;;;7.50;7.00;;;;;10.34;77.81;99725.63;5056737;28;45366;-64
2023/12/31 01:03:20;;;;;;;;;10.25;7.00;;;;;10.42;78.04;99746.44;5045281;28;45577;-70
2023/12/31 01:05:45;;;;;;;;;8.00;8.00;;;;;10.39;77.87;99732.56;5056210;28;45440;-62
2023/12/31 01:08:11;;;;;;;;;11.00;9.25;;;;;10.42;77.76;99715.03;5056684;28;45785;-62
2023/12/31 01:10:36;;;;;;;;;9.25;7.50;;;;;10.39;78.12;99721.19;5056169;28;45469;-60
2023/12/31 01:13:02;;;;;;;;;11.25;9.25;;;;;10.38;77.63;99693.28;5056385;28;45823;-61
2023/12/31 01:15:28;;;;;;;;;10.00;8.00;;;;;10.38;77.73;99685.44;5057237;28;45505;-60
2023/12/31 01:17:53;;;;;;;;;10.25;10.25;;;;;10.39;77.56;99689.78;5057073;28;45419;-60
2023/12/31 01:20:19;;;;;;;;;13.00;9.00;;;;;10.26;77.77;99668.13;5056119;28;46160;-60
2023/12/31 01:22:44;;;;;;;;;9.75;7.25;;;;;10.40;77.63;99695.00;5056498;28;45512;-61
2023/12/31 01:25:10;;;;;;;;;12.00;9.25;;;;;10.42;77.26;99683.63;5056486;28;45537;-62
2023/12/31 01:27:35;;;;;;;;;12.50;9.25;;;;;10.38;77.08;99682.81;5057831;28;45465;-70
2023/12/31 01:30:01;;;;;;;;;10.25;8.75;;;;;10.44;77.28;99672.28;5056562;28;45888;-70
2023/12/31 01:32:27;;;;;;;;;9.00;9.00;;;;;10.38;77.40;99654.03;5020812;28;45384;-63
2023/12/31 01:34:57;;;;;;;;;10.00;8.75;;;;;10.42;77.42;99645.25;5056475;28;45413;-72
2023/12/31 01:37:22;;;;;;;;;7.50;7.50;;;;;10.45;76.91;99655.66;5056352;28;45568;-70
2023/12/31 01:39:48;;;;;;;;;8.00;6.00;;;;;10.40;77.10;99647.88;5057576;28;46050;-71
2023/12/31 01:42:13;;;;;;;;;9.75;9.25;;;;;10.39;77.08;99633.09;5056277;28;45454;-63
2023/12/31 01:44:39;;;;;;;;;10.75;9.25;;;;;10.32;76.56;99604.38;5056476;28;45360;-62
2023/12/31 01:47:06;;;;;;;;;12.75;10.00;;;;;10.40;76.83;99620.84;5057117;28;45558;-63
2023/12/31 01:49:33;;;;;;;;;9.25;8.00;;;;;10.36;76.41;99627.88;5053806;28;45558;-60
2023/12/31 01:52:00;;;;;;;;;9.00;7.00;;;;;10.33;76.85;99619.22;5039017;28;45430;-70
2023/12/31 01:54:28;;;;;;;;;8.50;8.00;;;;;10.35;76.90;99615.69;5044289;28;45395;-60
2023/12/31 01:56:56;;;;;;;;;7.50;7.50;;;;;10.40;76.28;99620.84;5047826;28;45577;-61
2023/12/31 01:59:22;;;;;;;;;10.25;7.00;;;;;10.40;76.84;99621.72;5040108;28;46718;-63
2023/12/31 02:01:51;;;;;;;;;12.00;8.50;;;;;10.38;76.27;99607.78;5040036;28;45489;-60
2023/12/31 02:04:20;;;;;;;;;10.50;8.50;;;;;10.37;76.60;99590.34;5040629;28;45486;-62
2023/12/31 02:06:46;;;;;;;;;10.25;6.75;;;;;10.40;76.44;99585.06;5023008;28;45498;-62
2023/12/31 02:09:15;;;;;;;;;9.50;7.00;;;;;10.46;76.04;99580.63;5050389;28;45431;-61
2023/12/31 02:11:41;;;;;;;;;9.50;7.75;;;;;10.40;76.24;99566.75;5057099;28;45359;-61
2023/12/31 02:14:08;;;;;;;;;9.25;8.50;;;;;10.42;76.15;99576.31;5058857;28;45276;-62
2023/12/31 02:16:34;;;;;;;;;10.25;6.25;;;;;10.41;76.13;99549.28;5058426;28;45569;-60
2023/12/31 02:19:00;;;;;;;;;7.75;6.50;;;;;10.43;75.73;99552.72;5038857;28;46288;-64
2023/12/31 02:21:31;;;;;;;;;8.50;5.50;;;;;10.45;75.79;99548.34;5057580;28;45457;-61
2023/12/31 02:24:02;;;;;;;;;8.50;7.00;;;;;10.44;75.32;99545.75;5057898;28;45284;-61
2023/12/31 02:26:30;;;;;;;;;6.50;6.25;;;;;10.53;75.48;99545.59;5040558;28;45374;-60
2023/12/31 02:28:59;;;;;;;;;8.25;7.00;;;;;10.56;74.78;99511.53;5057760;28;46099;-60
2023/12/31 02:31:24;;;;;;;;;8.50;7.50;;;;;10.55;74.90;99512.41;5041964;28;45504;-60
2023/12/31 02:33:50;;;;;;;;;5.50;5.50;;;;;10.57;74.59;99521.09;5058128;28;45643;-60
2023/12/31 02:36:15;;;;;;;;;10.00;6.25;;;;;10.42;75.09;99497.78;5058591;28;45402;-60
2023/12/31 02:38:41;;;;;;;;;4.50;3.25;;;;;10.55;74.92;99513.25;5057792;28;46290;-62
2023/12/31 02:41:06;;;;;;;;;9.00;6.00;;;;;10.54;74.51;99490.59;5050084;28;45406;-61
2023/12/31 02:43:32;;;;;;;;;8.00;6.50;;;;;10.40;74.59;99471.66;5045365;28;45543;-58
2023/12/31 02:45:57;;;;;;;;;8.75;6.00;;;;;10.44;74.47;99486.41;5051754;28;45269;-60
2023/12/31 02:48:23;;;;;;;;;7.50;5.00;;;;;10.54;74.31;99500.22;5047926;28;45427;-61
2023/12/31 02:50:51;;;;;;;;;8.50;6.50;;;;;10.53;74.96;99483.63;5056164;28;45540;-59
2023/12/31 02:53:17;;;;;;;;;11.75;6.50;;;;;10.58;74.20;99500.13;5059006;28;45452;-62
2023/12/31 02:55:43;;;;;;;;;7.00;5.75;;;;;10.50;74.30;99478.44;5060807;28;45691;-59
2023/12/31 02:58:08;;;;;;;;;10.33;7.00;;;;;10.61;73.94;99499.22;5059546;28;46206;-61
2023/12/31 03:00:34;;;;;;;;;7.75;5.00;;;;;10.70;73.57;99496.44;5059180;28;45518;-60
2023/12/31 03:02:59;;;;;;;;;7.25;6.25;;;;;10.70;73.17;99487.69;5058651;28;45462;-59
2023/12/31 03:05:25;;;;;;;;;6.50;5.25;;;;;10.74;73.58;99489.38;5060454;28;45453;-61
2023/12/31 03:07:50;;;;;;;;;8.25;6.25;;;;;10.78;72.87;99480.56;5041479;28;46267;-60
2023/12/31 03:10:16;;;;;;;;;4.75;4.50;;;;;10.82;73.08;99474.38;5058834;28;45512;-61
2023/12/31 03:12:41;;;;;;;;;6.75;6.75;;;;;10.83;72.91;99483.97;5058934;28;46243;-62
2023/12/31 03:15:09;;;;;;;;;5.00;5.00;;;;;10.86;72.65;99462.06;5059300;28;45391;-59
2023/12/31 03:17:34;;;;;;;;;5.50;5.00;;;;;10.87;72.69;99480.41;5058900;28;45601;-60
2023/12/31 03:20:00;;;;;;;;;3.67;3.67;;;;;10.80;72.82;99463.94;5058667;28;45437;-61
2023/12/31 03:22:25;;;;;;;;;6.50;5.50;;;;;10.83;72.29;99431.56;5059062;28;45395;-60
2023/12/31 03:24:51;;;;;;;;;0.00;0.00;;;;;10.92;72.66;99441.00;5060044;28;45501;-61
2023/12/31 03:27:17;;;;;;;;;6.00;3.67;;;;;10.92;73.11;99441.00;5058302;28;45426;-60
2023/12/31 03:29:42;;;;;;;;;8.00;5.50;;;;;10.95;73.25;99428.69;5058341;28;45332;-61
2023/12/31 03:32:09;;;;;;;;;6.50;4.75;;;;;10.95;73.86;99433.09;5058708;28;45481;-60
2023/12/31 03:34:35;;;;;;;;;7.25;5.00;;;;;10.93;73.36;99409.53;5060403;28;45476;-61
2023/12/31 03:37:00;;;;;;;;;7.50;4.25;;;;;10.98;73.07;99414.66;5059683;28;45468;-66
2023/12/31 03:39:26;;;;;;;;;7.00;5.00;;;;;11.00;72.83;99411.13;5058442;28;45645;-60
2023/12/31 03:41:51;;;;;;;;;5.67;4.00;;;;;11.02;72.55;99406.72;5058624;28;45444;-68
2023/12/31 03:44:23;;;;;;;;;5.25;5.00;;;;;11.00;72.19;99386.69;5059036;28;45246;-68
2023/12/31 03:47:07;;;;;;;;;4.00;4.00;;;;;10.95;72.34;99354.50;5041666;28;47155;-69
2023/12/31 03:49:33;;;;;;;;;7.33;4.67;;;;;11.18;71.47;99386.28;5058634;28;45270;-69
2023/12/31 03:51:59;;;;;;;;;5.00;5.00;;;;;11.21;71.13;99387.97;5059620;28;45487;-62
2023/12/31 03:54:24;;;;;;;;;6.75;5.50;;;;;11.22;71.87;99371.34;5058563;28;45423;-60
2023/12/31 03:56:53;;;;;;;;;6.00;5.00;;;;;11.30;71.04;99381.69;5058785;28;45880;-65
2023/12/31 03:59:19;;;;;;;;;2.00;2.00;;;;;11.23;71.76;99362.59;5058068;28;45591;-62
2023/12/31 04:01:56;;;;;;;;;7.33;5.67;;;;;11.31;73.06;99373.78;5058672;28;45411;-62
2023/12/31 04:04:30;;;;;;;;;4.00;4.00;;;;;11.30;73.46;99377.31;5056991;28;45474;-65
2023/12/31 04:07:07;;;;;;;;;6.33;5.33;;;;;11.29;73.53;99386.03;5058871;28;45421;-68
2023/12/31 04:09:37;;;;;;;;;3.33;3.33;;;;;11.31;73.80;99381.63;5058266;28;45507;-66
2023/12/31 04:12:04;;;;;;;;;5.00;4.00;;;;;11.24;74.06;99380.03;5042039;28;45326;-68
2023/12/31 04:14:40;;;;;;;;;5.00;4.00;;;;;11.17;74.64;99388.94;5058872;28;46423;-60
2023/12/31 04:17:07;;;;;;;;;4.00;4.00;;;;;11.30;75.05;99403.50;5035757;28;47879;-65
2023/12/31 04:19:40;;;;;;;;;6.00;4.00;;;;;11.34;75.65;99406.91;5059100;28;45415;-63
2023/12/31 04:22:16;;;;;;;;;5.33;2.00;;;;;11.33;75.61;99390.31;5059040;28;45713;-64
2023/12/31 04:24:49;;;;;;;;;3.67;3.67;;;;;11.19;75.42;99361.81;5059220;28;45577;-65
2023/12/31 04:27:21;;;;;;;;;4.00;3.00;;;;;11.20;75.32;99365.28;5058381;28;45493;-61
2023/12/31 04:29:59;;;;;;;;;3.00;2.00;;;;;11.09;73.92;99348.94;5040266;28;45894;-69
2023/12/31 04:32:27;;;;;;;;;3.00;1.67;;;;;10.96;74.24;99350.97;5058062;28;45251;-61
2023/12/31 04:34:53;;;;;;;;;3.67;1.67;;;;;10.85;73.90;99332.88;5057395;28;45934;-60
2023/12/31 04:37:22;;;;;;;;;1.00;1.00;;;;;10.86;73.79;99346.81;5056866;28;45370;-67
2023/12/31 04:39:50;;;;;;;;;1.33;1.00;;;;;10.86;73.80;99365.16;5058006;28;45429;-62
2023/12/31 04:42:34;;;;;;;;;;;;;;;;;;;;;
2023/12/31 04:45:38;;;;;;;;;1.00;1.00;;;;;10.78;73.73;99354.84;5057841;28;66160;-61
2023/12/31 04:48:41;;;;;;;;;1.00;1.00;;;;;10.74;73.86;99325.22;5039160;28;46075;-66
2023/12/31 04:51:09;;;;;;;;;1.00;1.00;;;;;10.72;73.99;99352.34;5025839;28;45556;-62
2023/12/31 04:53:36;;;;;;;;;0.67;0.67;;;;;10.58;73.82;99340.41;5051534;28;45400;-61
2023/12/31 04:56:02;;;;;;;;;2.00;1.00;;;;;10.56;73.44;99331.72;5058785;28;45457;-61
2023/12/31 04:58:27;;;;;;;;;0.67;0.67;;;;;10.58;73.57;99342.16;5039274;28;46398;-66
2023/12/31 05:01:26;;;;;;;;;1.33;0.33;;;;;10.57;73.74;99357.00;5058692;28;45466;-68
2023/12/31 05:04:24;;;;;;;;;0.00;0.00;;;;;10.56;73.01;99363.16;5058632;28;45501;-63
2023/12/31 05:08:29;;;;;;;;;;;;;;;;;;;;;
2023/12/31 05:10:38;;;;;;;;;0.00;0.00;;;;;10.37;73.36;99362.66;5011037;28;46171;-62
2023/12/31 05:13:04;;;;;;;;;0.00;0.00;;;;;10.34;73.59;99356.59;5057009;28;45434;-59
2023/12/31 05:15:30;;;;;;;;;2.00;0.33;;;;;10.26;73.67;99345.38;5057291;28;45587;-60
2023/12/31 05:17:56;;;;;;;;;0.00;0.00;;;;;10.30;73.28;99352.31;5057628;28;45525;-61
2023/12/31 05:20:25;;;;;;;;;1.00;0.00;;;;;10.27;73.25;99339.25;5042956;28;46104;-63
2023/12/31 05:22:54;;;;;;;;;2.00;0.00;;;;;10.28;72.65;99333.13;5058265;28;45429;-63
2023/12/31 05:25:55;;;;;;;;;2.00;0.00;;;;;10.30;72.36;99350.56;5057784;28;45687;-62
2023/12/31 05:28:20;;;;;;;;;0.00;0.00;;;;;10.26;72.47;99333.16;5048403;28;45549;-62
2023/12/31 05:30:50;;;;;;;;;0.00;0.00;;;;;10.31;71.54;99347.03;5056712;28;46559;-66
2023/12/31 05:33:26;;;;;;;;;0.33;0.00;;;;;10.31;71.54;99354.03;5040551;28;45330;-69
2023/12/31 05:35:57;;;;;;;;;0.67;0.67;;;;;10.35;71.69;99361.81;5057425;28;45524;-62
2023/12/31 05:38:25;;;;;;;;;0.00;0.00;;;;;10.31;70.28;99344.44;5040395;28;45493;-66
2023/12/31 05:40:54;;;;;;;;;0.00;0.00;;;;;10.18;70.76;99319.38;5057751;28;45765;-65
2023/12/31 05:43:47;;;;;;;;;2.00;0.00;;;;;10.23;70.68;99327.09;5048104;28;45597;-62
2023/12/31 05:46:14;;;;;;;;;0.00;0.00;;;;;10.21;70.19;99324.53;5042167;28;45376;-64
2023/12/31 05:48:39;;;;;;;;;0.00;0.00;;;;;10.17;70.15;99302.78;5050416;28;45572;-67
2023/12/31 05:51:05;;;;;;;;;1.33;0.00;;;;;10.08;70.19;99299.50;5041769;28;45643;-60
2023/12/31 05:53:30;;;;;;;;;0.00;0.00;;;;;9.85;70.04;99258.94;5041834;28;45408;-64
2023/12/31 05:55:57;;;;;;;;;0.00;0.00;;;;;10.06;69.79;99293.41;5038165;28;45674;-64
2023/12/31 05:58:22;;;;;;;;;1.50;1.25;;;;;10.05;70.47;99279.47;5045771;28;45399;-62
2023/12/31 06:00:48;;;;;;;;;1.00;0.00;;;;;10.10;69.67;99293.34;5052924;28;45549;-64
2023/12/31 06:03:13;;;;;;;;;1.00;0.00;;;;;10.08;69.77;99307.34;5051497;28;45434;-65
2023/12/31 06:05:39;;;;;;;;;2.00;0.00;;;;;10.00;69.56;99297.03;5050498;28;45580;-64
2023/12/31 06:08:05;;;;;;;;;1.00;0.00;;;;;10.06;70.13;99309.13;5042687;28;46226;-62
2023/12/31 06:10:31;;;;;;;;;0.00;0.00;;;;;9.89;69.99;99291.13;5039008;28;46268;-62
2023/12/31 06:12:57;;;;;;;;;0.00;0.00;;;;;10.03;69.39;99327.50;5041344;28;45398;-67
2023/12/31 06:15:22;;;;;;;;;2.33;0.00;;;;;9.95;69.61;99318.03;5039309;28;45428;-60
2023/12/31 06:17:48;;;;;;;;;0.00;0.00;;;;;10.01;69.57;99314.44;5040879;28;45529;-61
2023/12/31 06:20:14;;;;;;;;;1.00;0.00;;;;;10.01;69.54;99329.28;5039289;28;46007;-63
2023/12/31 06:22:40;;;;;;;;;1.67;0.00;;;;;10.00;69.08;99331.03;5038255;28;45291;-70
2023/12/31 06:25:06;;;;;;;;;1.00;0.00;;;;;10.01;68.39;99339.72;5042730;28;45486;-63
2023/12/31 06:27:32;;;;;;;;;0.00;0.00;;;;;10.03;69.00;99348.41;5052760;28;45316;-62
2023/12/31 06:29:58;;;;;;;;;0.00;0.00;;;;;10.06;67.85;99332.66;5048398;28;45604;-62
2023/12/31 06:32:24;;;;;;;;;0.00;0.00;;;;;10.04;67.96;99344.94;5038673;28;45582;-61
2023/12/31 06:34:50;;;;;;;;;0.00;0.00;;;;;10.07;67.64;99364.03;5036956;28;45450;-60
2023/12/31 06:37:15;;;;;;;;;0.00;0.00;;;;;10.02;67.35;99358.03;5038002;28;45327;-60
2023/12/31 06:39:43;;;;;;;;;0.67;0.00;;;;;10.16;67.07;99365.63;5051453;28;46234;-61
2023/12/31 06:42:08;;;;;;;;;0.00;0.00;;;;;10.09;66.58;99367.50;5049910;28;45496;-60
2023/12/31 06:44:34;;;;;;;;;3.00;0.00;;;;;10.17;66.57;99383.03;5041614;28;45438;-63
2023/12/31 06:46:59;;;;;;;;;0.00;0.00;;;;;10.21;67.10;99387.34;5052278;28;45338;-60
2023/12/31 06:49:25;;;;;;;;;1.00;0.00;;;;;10.21;66.78;99395.19;5057085;28;45993;-60
2023/12/31 06:51:50;;;;;;;;;1.00;0.00;;;;;10.09;66.59;99370.09;5058109;28;45446;-59
2023/12/31 06:54:16;;;;;;;;;0.00;0.00;;;;;10.23;66.62;99388.19;5057892;28;45419;-61
2023/12/31 06:56:51;;;;;;;;;0.00;0.00;;;;;10.17;66.50;99402.22;5041872;28;45468;-61
2023/12/31 06:59:17;;;;;;;;;0.00;0.00;;;;;10.24;66.37;99383.81;5040693;28;46858;-60
2023/12/31 07:01:43;;;;;;;;;0.00;0.00;;;;;10.18;65.89;99400.47;5045609;28;45585;-61
2023/12/31 07:04:08;;;;;;;;;0.00;0.00;;;;;10.21;65.87;99402.19;5044326;28;45704;-59
2023/12/31 07:06:34;;;;;;;;;1.00;0.00;;;;;10.19;66.13;99429.22;5046183;28;45268;-61
2023/12/31 07:08:59;;;;;;;;;0.00;0.00;;;;;10.18;66.45;99424.88;5045332;28;45455;-61
2023/12/31 07:11:25;;;;;;;;;0.00;0.00;;;;;10.17;66.46;99425.75;5048180;28;45467;-61
2023/12/31 07:13:50;;;;;;;;;0.00;0.00;;;;;10.13;66.56;99431.97;5052205;28;46351;-59
2023/12/31 07:16:16;;;;;;;;;0.00;0.00;;;;;9.92;66.66;99407.03;5051730;28;45529;-59
2023/12/31 07:18:42;;;;;;;;;2.00;0.00;;;;;9.88;66.58;99421.03;5045820;28;45452;-61
2023/12/31 07:21:08;;;;;;;;;0.00;0.00;;;;;10.07;66.81;99473.06;5040288;28;45522;-62
2023/12/31 07:23:33;;;;;;;;;0.00;0.00;;;;;10.05;66.67;99467.84;5052487;28;45399;-60
2023/12/31 07:25:59;;;;;;;;;0.00;0.00;;;;;10.00;66.95;99472.28;5050391;28;45455;-62
2023/12/31 07:28:25;;;;;;;;;0.00;0.00;;;;;10.03;66.78;99468.75;5046888;28;45431;-61
2023/12/31 07:30:50;;;;;;;;;2.25;2.25;;;;;9.93;67.16;99452.34;5042404;28;45452;-59
2023/12/31 07:33:16;;;;;;;;;1.00;0.00;;;;;10.03;67.33;99482.69;5047439;28;45446;-59
2023/12/31 07:35:41;;;;;;;;;1.00;0.00;;;;;9.93;67.21;99475.88;5043127;28;45433;-60
2023/12/31 07:38:08;;;;;;;;;1.33;0.00;;;;;9.97;67.15;99495.88;5043092;28;45447;-60
2023/12/31 07:40:34;;;;;;;;;0.33;0.00;;;;;9.92;67.42;99487.25;5045415;28;45616;-61
2023/12/31 07:42:59;;;;;;;;;0.00;0.00;;;;;9.95;67.16;99508.97;5050447;28;45523;-61
2023/12/31 07:45:25;;;;;;;;;0.00;0.00;;;;;9.94;67.20;99508.97;5050123;28;45328;-60
2023/12/31 07:47:53;;;;;;;;;1.33;0.00;;;;;9.92;67.32;99526.47;5050103;28;45388;-62
2023/12/31 07:50:20;;;;;;;;;1.67;0.00;;;;;9.91;67.50;99545.66;5053269;28;45509;-63
2023/12/31 07:52:46;;;;;;;;;0.00;0.00;;;;;9.82;67.64;99544.03;5047329;28;45868;-60
2023/12/31 07:55:12;;;;;;;;;1.67;0.00;;;;;9.83;67.92;99578.91;5055347;28;45438;-63
2023/12/31 07:57:38;;;;;;;;;0.00;0.00;;;;;9.85;67.55;99575.38;5049648;28;45597;-64
2023/12/31 08:00:05;;;;;;;;;0.00;0.00;;;;;9.83;67.34;99586.75;5048767;28;45453;-62
2023/12/31 08:02:30;;;;;;;;;0.00;0.00;;;;;9.82;69.12;99590.22;5045578;28;45332;-62
2023/12/31 08:04:56;;;;;;;;;1.33;0.00;;;;;9.75;68.36;99584.22;5053923;28;45433;-61
2023/12/31 08:07:21;;;;;;;;;0.67;0.00;;;;;9.79;67.62;99582.44;5043221;28;46051;-63
2023/12/31 08:09:47;;;;;;;;;0.00;0.00;;;;;9.88;68.11;99598.00;5046236;28;45318;-66
2023/12/31 08:12:13;;;;;;;;;0.00;0.00;;;;;9.89;68.08;99608.44;5051095;28;45407;-63
2023/12/31 08:14:39;;;;;;;;;3.00;0.00;;;;;9.91;67.77;99601.44;5049775;28;45562;-66
2023/12/31 08:17:05;;;;;;;;;0.67;0.00;;;;;9.91;67.67;99608.41;5042896;28;45430;-61
2023/12/31 08:19:30;;;;;;;;;1.00;0.00;;;;;9.92;67.95;99612.78;5046814;28;45363;-62
2023/12/31 08:21:56;;;;;;;;;3.00;0.00;;;;;9.84;68.01;99598.94;5043147;28;45356;-61
2023/12/31 08:24:21;;;;;;;;;0.00;0.00;;;;;9.96;68.07;99617.06;5043440;28;45307;-61
2023/12/31 08:26:47;;;;;;;;;1.00;0.00;;;;;9.97;67.97;99624.91;5044397;28;45466;-63
2023/12/31 08:29:13;;;;;;;;;1.00;1.00;;;;;10.01;67.39;99609.16;5048107;28;45482;-61
2023/12/31 08:31:38;;;;;;;;;3.00;0.00;;;;;10.04;67.57;99607.38;5051949;28;45507;-63
2023/12/31 08:34:04;;;;;;;;;2.00;1.00;;;;;10.12;69.50;99609.88;5048104;28;45427;-59
2023/12/31 08:36:29;;;;;;;;;0.00;0.00;;;;;10.31;67.04;99620.97;5040237;28;46088;-60
2023/12/31 08:38:55;;;;;;;;;2.50;1.00;;;;;10.76;66.02;99634.25;5050873;28;45454;-60
2023/12/31 08:41:21;;;;;;;;;1.00;0.00;;;;;11.24;64.65;99639.53;5040952;28;45437;-61
2023/12/31 08:43:48;;;;;;;;;0.00;0.00;;;;;12.07;62.47;99635.28;5038956;28;45553;-63
2023/12/31 08:46:13;;;;;;;;;1.00;0.00;;;;;12.65;60.80;99631.34;5037139;28;45624;-60
2023/12/31 08:48:40;;;;;;;;;1.00;0.00;;;;;13.60;59.14;99646.44;5037333;28;45329;-65
2023/12/31 08:51:05;;;;;;;;;2.00;0.00;;;;;14.42;57.01;99647.53;5030726;28;45431;-65
2023/12/31 08:53:46;;;;;;;;;2.00;0.00;;;;;15.15;54.35;99651.38;5045238;28;45425;-65
2023/12/31 08:56:12;;;;;;;;;0.00;0.00;;;;;15.83;52.38;99657.78;5046289;28;45697;-65
2023/12/31 08:58:39;;;;;;;;;0.00;0.00;;;;;16.25;50.49;99657.06;5043987;28;45600;-63
2023/12/31 09:01:05;;;;;;;;;1.00;0.00;;;;;16.73;49.91;99651.66;5048144;28;45564;-60
2023/12/31 09:03:31;;;;;;;;;1.00;0.00;;;;;17.63;48.19;99642.59;5048879;28;45465;-65
2023/12/31 09:05:56;;;;;;;;;1.00;0.00;;;;;18.51;46.88;99656.22;5050152;28;46280;-62
2023/12/31 09:08:23;;;;;;;;;2.00;0.00;;;;;19.00;44.49;99652.97;5039342;28;45289;-66
2023/12/31 09:10:49;;;;;;;;;2.00;0.00;;;;;19.82;43.76;99660.31;5022513;28;45570;-67
2023/12/31 09:13:22;;;;;;;;;1.00;0.00;;;;;20.33;41.65;99659.28;5046869;28;45481;-60
2023/12/31 09:15:48;;;;;;;;;1.00;0.00;;;;;20.49;39.34;99626.50;5047030;28;45714;-61
2023/12/31 09:18:13;;;;;;;;;2.00;0.00;;;;;20.78;39.86;99666.56;5049082;28;47004;-59
2023/12/31 09:20:39;;;;;;;;;0.67;0.00;;;;;21.32;39.07;99678.47;5052950;28;45621;-61
2023/12/31 09:23:08;;;;;;;;;0.00;0.00;;;;;21.91;38.49;99667.00;5053935;28;45762;-59
2023/12/31 09:25:33;;;;;;;;;1.33;0.00;;;;;22.24;37.37;99690.72;5055282;28;46429;-62
2023/12/31 09:27:59;;;;;;;;;2.75;0.00;;;;;22.57;36.44;99674.38;5054232;28;45462;-64
2023/12/31 09:30:26;;;;;;;;;1.25;0.00;;;;;22.34;36.09;99691.00;5052496;28;45759;-62
2023/12/31 09:32:52;;;;;;;;;1.75;1.00;;;;;20.93;37.42;99697.66;5055284;28;45329;-60
2023/12/31 09:35:18;;;;;;;;;1.50;0.75;;;;;19.37;39.43;99694.47;5057860;28;45398;-60
2023/12/31 09:37:44;;;;;;;;;0.00;0.00;;;;;18.10;41.64;99712.00;5060704;28;45380;-61
2023/12/31 09:40:10;;;;;;;;;1.00;0.33;;;;;18.19;42.65;99710.75;5058431;28;45585;-64
2023/12/31 09:42:54;;;;;;;;;0.00;0.00;;;;;18.98;41.54;99706.16;5054980;28;45391;-61
2023/12/31 09:45:24;;;;;;;;;0.67;0.00;;;;;20.19;39.86;99720.31;5051946;28;45457;-61
2023/12/31 09:47:51;;;;;;;;;7.00;1.00;;;;;21.32;38.05;99713.09;5052676;28;45894;-61
2023/12/31 09:50:23;;;;;;;;;0.00;0.00;;;;;22.15;36.68;99697.44;5051480;28;45482;-60
2023/12/31 09:52:50;;;;;;;;;1.00;1.00;;;;;22.24;35.33;99704.06;5048511;28;45395;-66
2023/12/31 09:55:18;;;;;;;;;4.00;1.33;;;;;21.45;36.62;99696.41;5052177;28;46531;-59
2023/12/31 09:57:46;;;;;;;;;3.00;0.33;;;;;20.93;37.04;99701.16;5047449;28;45486;-66
2023/12/31 10:00:12;;;;;;;;;5.67;1.00;;;;;20.43;37.10;99718.13;5057877;28;45376;-60
2023/12/31 10:02:38;;;;;;;;;2.00;1.00;;;;;20.56;38.14;99715.69;5056068;28;45603;-61
2023/12/31 10:05:06;;;;;;;;;4.00;1.00;;;;;21.26;36.51;99710.81;5041827;28;45481;-60
2023/12/31 10:07:32;;;;;;;;;1.00;0.75;;;;;22.14;36.20;99718.88;5055692;28;45521;-61
2023/12/31 10:09:59;;;;;;;;;9.33;8.67;;;;;21.34;35.81;99721.84;5056060;28;45387;-60
2023/12/31 10:12:27;;;;;;;;;9.67;6.67;;;;;20.27;37.64;99718.09;5056491;28;45371;-62
2023/12/31 10:14:56;;;;;;;;;5.00;2.00;;;;;20.06;37.97;99700.66;5056233;28;46423;-60
2023/12/31 10:17:22;;;;;;;;;1.00;1.00;;;;;19.72;38.41;99701.56;5055924;28;45363;-62
2023/12/31 10:19:47;;;;;;;;;1.00;1.00;;;;;19.09;39.74;99718.03;5056941;28;45471;-60
2023/12/31 10:22:16;;;;;;;;;4.00;0.00;;;;;18.63;40.42;99724.59;5056406;28;45450;-59
2023/12/31 10:24:41;;;;;;;;;3.00;1.67;;;;;18.94;39.67;99715.19;5059519;28;45403;-60
2023/12/31 10:27:11;;;;;;;;;2.00;1.00;;;;;19.18;39.62;99722.88;5059396;28;45453;-61
2023/12/31 10:29:39;;;;;;;;;2.33;1.00;;;;;19.69;39.21;99724.72;5059101;28;45353;-62
2023/12/31 10:32:07;;;;;;;;;2.00;2.00;;;;;20.15;37.67;99708.16;5059811;28;45414;-62
2023/12/31 10:34:33;;;;;;;;;1.67;1.33;;;;;21.00;37.29;99696.34;5059904;28;46172;-63
2023/12/31 10:37:05;;;;;;;;;3.33;0.33;;;;;21.61;36.21;99707.88;5044698;28;45506;-61
2023/12/31 10:39:36;;;;;;;;;1.67;1.67;;;;;20.59;36.88;99683.56;5059810;28;45324;-65
2023/12/31 10:42:06;;;;;;;;;3.00;1.00;;;;;19.57;38.21;99672.19;5058326;28;45470;-62
2023/12/31 10:44:34;;;;;;;;;4.67;1.00;;;;;18.63;39.60;99724.59;5057685;28;46177;-62
2023/12/31 10:47:06;;;;;;;;;3.00;1.00;;;;;17.26;41.89;99660.94;5028143;28;45430;-71
2023/12/31 10:49:33;;;;;;;;;2.33;1.00;;;;;16.82;42.97;99713.88;5024358;28;45375;-64
2023/12/31 10:52:06;;;;;;;;;7.00;1.33;;;;;15.86;44.73;99662.97;5041986;28;45493;-67
2023/12/31 10:54:42;;;;;;;;;3.00;1.33;;;;;15.55;46.52;99690.41;5040605;28;46011;-62
2023/12/31 10:57:09;;;;;;;;;3.00;1.67;;;;;15.48;48.18;99702.97;5042056;28;45541;-63
2023/12/31 10:59:38;;;;;;;;;1.33;0.00;;;;;16.45;45.76;99710.03;5056111;28;45404;-62
2023/12/31 11:02:07;;;;;;;;;4.00;1.33;;;;;17.74;43.41;99651.78;5057874;28;45261;-61
2023/12/31 11:04:33;;;;;;;;;3.00;1.00;;;;;20.43;38.87;99672.03;5058852;28;45983;-64
2023/12/31 11:07:03;;;;;;;;;4.00;2.00;;;;;22.02;35.40;99652.03;5059307;28;45489;-62
2023/12/31 11:09:33;;;;;;;;;5.33;2.00;;;;;23.89;32.58;99662.00;5058266;28;45346;-65
2023/12/31 11:11:59;;;;;;;;;6.67;2.33;;;;;25.25;30.64;99644.97;5058442;28;45573;-65
2023/12/31 11:14:31;;;;;;;;;4.33;3.00;;;;;26.42;28.93;99658.13;5058430;28;46141;-62
2023/12/31 11:17:11;;;;;;;;;2.00;2.00;;;;;27.22;27.01;99657.81;5059641;28;45532;-64
2023/12/31 11:20:12;;;;;;;;;4.00;3.00;;;;;28.05;26.50;99642.63;5059026;28;45335;-60
2023/12/31 11:23:01;;;;;;;;;4.50;2.00;;;;;27.36;26.28;99669.22;5059105;28;45566;-60
2023/12/31 11:25:27;;;;;;;;;2.00;2.00;;;;;24.91;28.23;99677.81;5057184;28;47132;-62
2023/12/31 11:27:57;;;;;;;;;4.50;3.00;;;;;23.12;30.49;99677.91;5059110;28;45553;-62
2023/12/31 11:30:51;;;;;;;;;3.75;1.50;;;;;21.37;33.36;99681.72;5042112;28;45388;-61
2023/12/31 11:33:24;;;;;;;;;5.50;2.25;;;;;20.44;34.09;99682.59;5059079;28;45474;-62
2023/12/31 11:36:05;;;;;;;;;2.00;1.00;;;;;19.87;35.46;99687.50;5058263;28;45460;-59
2023/12/31 11:38:53;;;;;;;;;7.00;3.33;;;;;18.96;36.21;99688.56;5058385;28;45542;-62
2023/12/31 11:41:23;;;;;;;;;8.33;1.00;;;;;18.03;37.66;99676.13;5048363;28;45364;-62